Time;durP1;ratioP1;P1;durP2;ratioP2;P2;SDS_P1;SDS_P2;PMS_P1;PMS_P2;Temp;Humidity;BMP_temperature;BMP_pressure;BME280_temperature;BME280_humidity;BME280_pressure;Samples;Min_cycle;Max_cycle;Signal;HPM_P1;HPM_P2
2022/05/07 00:01:31;;;;;;;3.45;1.70;;;;;;;19.07;57.56;96527.50;5011461;28;20145;-30
2022/05/07 00:03:57;;;;;;;2.95;1.85;;;;;;;19.17;57.32;96525.38;5011535;28;20034;-30
2022/05/07 00:06:22;;;;;;;3.65;2.30;;;;;;;19.22;56.88;96516.47;5010476;28;20029;-31
2022/05/07 00:08:48;;;;;;;4.20;1.90;;;;;;;19.13;56.95;96525.59;5011557;28;20053;-30
2022/05/07 00:11:15;;;;;;;3.72;1.90;;;;;;;19.12;57.13;96524.09;5011771;28;20032;-30
2022/05/07 00:13:41;;;;;;;3.28;2.10;;;;;;;19.16;56.83;96518.41;5011484;28;20484;-30
2022/05/07 00:18:51;;;;;;;4.05;1.63;;;;;;;19.12;57.02;96513.09;5011654;28;20064;-30
2022/05/07 00:21:16;;;;;;;2.78;1.60;;;;;;;19.18;56.79;96522.16;5011433;28;20113;-29
2022/05/07 00:23:42;;;;;;;4.63;1.83;;;;;;;19.14;56.91;96515.38;5011763;28;20109;-30
2022/05/07 00:26:08;;;;;;;3.00;2.00;;;;;;;19.07;57.06;96516.53;5011280;28;20022;-32
2022/05/07 00:28:35;;;;;;;5.88;1.75;;;;;;;19.15;56.76;96511.38;5011434;28;20109;-30
2022/05/07 00:31:01;;;;;;;4.20;2.03;;;;;;;19.20;56.49;96510.69;5011295;28;20400;-30
2022/05/07 00:33:27;;;;;;;3.10;1.83;;;;;;;19.11;57.06;96516.31;5042929;28;20037;-30
2022/05/07 00:35:52;;;;;;;2.17;1.50;;;;;;;19.08;57.23;96509.78;5011321;28;20046;-30
2022/05/07 00:38:18;;;;;;;2.72;1.50;;;;;;;19.01;57.24;96508.22;5013304;28;20054;-30
2022/05/07 00:40:43;;;;;;;4.03;1.60;;;;;;;19.09;56.69;96505.81;5013473;28;20464;-30
2022/05/07 00:43:12;;;;;;;2.30;1.50;;;;;;;19.01;56.56;96502.72;5013339;28;20028;-31
2022/05/07 00:45:38;;;;;;;3.05;1.40;;;;;;;19.05;56.49;96496.25;5013196;28;20080;-30
2022/05/07 00:48:03;;;;;;;4.47;1.60;;;;;;;19.14;56.37;96493.38;5013128;28;20050;-31
2022/05/07 00:53:13;;;;;;;1.70;1.38;;;;;;;19.09;56.57;96494.06;5013150;28;20033;-30
2022/05/07 00:55:40;;;;;;;2.47;1.67;;;;;;;19.08;56.34;96495.28;5013249;28;20426;-30
2022/05/07 00:58:06;;;;;;;3.42;1.45;;;;;;;19.12;56.14;96485.59;5013054;28;20053;-31
2022/05/07 01:00:31;;;;;;;4.15;1.90;;;;;;;19.03;56.39;96491.25;5013191;28;20045;-30
2022/05/07 01:02:57;;;;;;;2.83;1.38;;;;;;;19.07;56.07;96483.53;5013291;28;20026;-30
2022/05/07 01:05:23;;;;;;;3.35;1.75;;;;;;;19.01;56.49;96477.22;5013142;28;20463;-30
2022/05/07 01:07:50;;;;;;;2.50;1.50;;;;;;;19.10;56.14;96479.84;5028191;28;20026;-31
2022/05/07 01:10:16;;;;;;;3.70;1.35;;;;;;;19.08;56.30;96479.56;5013389;28;20111;-31
2022/05/07 01:12:41;;;;;;;2.20;1.42;;;;;;;18.97;56.09;96479.41;5012983;28;20088;-30
2022/05/07 01:15:07;;;;;;;2.00;1.40;;;;;;;19.03;56.12;96472.00;5012976;28;20060;-31
2022/05/07 01:17:33;;;;;;;2.08;1.40;;;;;;;19.03;56.37;96477.50;5030990;28;20092;-30
2022/05/07 01:19:59;;;;;;;2.63;1.40;;;;;;;18.99;56.14;96472.22;5016627;28;20030;-30
2022/05/07 01:22:28;;;;;;;4.20;1.50;;;;;;;19.01;56.21;96477.97;5016532;28;20022;-30
2022/05/07 01:24:54;;;;;;;1.73;1.33;;;;;;;18.81;56.13;96477.94;5016438;28;20034;-30
2022/05/07 01:27:19;;;;;;;2.22;1.30;;;;;;;18.95;56.38;96466.16;5016366;28;20033;-31
2022/05/07 01:29:47;;;;;;;3.03;1.83;;;;;;;18.85;56.12;96467.53;5016593;28;20021;-31
2022/05/07 01:32:13;;;;;;;2.80;1.67;;;;;;;18.91;55.90;96462.88;5016360;28;20032;-30
2022/05/07 01:34:38;;;;;;;3.75;1.30;;;;;;;19.01;55.96;96464.25;5016187;28;20025;-30
2022/05/07 01:37:04;;;;;;;3.92;1.52;;;;;;;19.07;55.74;96469.78;5016284;28;20017;-31
2022/05/07 01:39:29;;;;;;;1.35;1.20;;;;;;;19.02;55.86;96471.25;5016195;28;20037;-31
2022/05/07 01:41:54;;;;;;;3.13;1.48;;;;;;;19.02;55.78;96474.00;5016124;28;20472;-30
2022/05/07 01:44:20;;;;;;;2.92;2.08;;;;;;;19.01;56.05;96464.25;5016031;28;20029;-30
2022/05/07 01:49:29;;;;;;;1.77;1.42;;;;;;;18.99;56.17;96472.22;5015867;28;20423;-30
2022/05/07 01:51:55;;;;;;;2.78;2.03;;;;;;;18.99;55.81;96477.72;5015784;28;20022;-30
2022/05/07 01:54:20;;;;;;;3.00;1.85;;;;;;;18.99;55.84;96477.72;5016075;28;20480;-32
2022/05/07 01:56:47;;;;;;;3.47;1.48;;;;;;;18.97;55.66;96468.41;5016094;28;20084;-31
2022/05/07 01:59:12;;;;;;;3.17;1.67;;;;;;;19.00;55.66;96476.47;5016000;28;20038;-30
2022/05/07 02:01:39;;;;;;;2.95;1.45;;;;;;;19.01;55.67;96474.47;5015868;28;20036;-30
2022/05/07 02:04:04;;;;;;;3.97;1.70;;;;;;;19.01;55.78;96479.97;5030938;28;20026;-31
2022/05/07 02:06:30;;;;;;;1.38;1.27;;;;;;;19.01;55.55;96488.22;5015812;28;20084;-30
2022/05/07 02:08:55;;;;;;;2.58;1.55;;;;;;;18.88;55.89;96482.31;5015626;28;20045;-30
2022/05/07 02:11:20;;;;;;;2.30;1.60;;;;;;;18.99;55.66;96477.72;5015556;28;20025;-30
2022/05/07 02:13:46;;;;;;;1.90;1.42;;;;;;;18.94;55.79;96486.63;5015434;28;20213;-31
2022/05/07 02:16:11;;;;;;;3.15;1.33;;;;;;;19.00;55.58;96476.47;5015589;28;20049;-30
2022/05/07 02:18:37;;;;;;;1.98;1.48;;;;;;;18.95;55.60;96490.13;5015456;28;20022;-30
2022/05/07 02:21:03;;;;;;;2.75;1.75;;;;;;;19.01;55.45;96488.22;5015277;28;20072;-30
2022/05/07 02:23:28;;;;;;;3.55;1.40;;;;;;;18.90;55.65;96494.34;5015410;28;20108;-31
2022/05/07 02:25:54;;;;;;;2.60;1.30;;;;;;;18.93;55.85;96474.13;5015249;28;20439;-30
2022/05/07 02:28:19;;;;;;;3.70;1.63;;;;;;;18.98;55.42;96491.91;5013861;28;20053;-30
2022/05/07 02:30:45;;;;;;;2.22;1.27;;;;;;;19.01;55.49;96480.72;5015242;28;20476;-32
2022/05/07 02:33:10;;;;;;;1.73;1.08;;;;;;;18.98;55.53;96492.69;5030378;28;20022;-30
2022/05/07 02:35:37;;;;;;;2.67;1.35;;;;;;;19.05;55.22;96482.50;5013887;28;20040;-30
2022/05/07 02:38:02;;;;;;;2.88;1.55;;;;;;;18.74;55.99;96483.88;5012916;28;20036;-30
2022/05/07 02:40:29;;;;;;;3.70;1.38;;;;;;;18.91;55.29;96473.09;5014365;28;20021;-30
2022/05/07 02:42:54;;;;;;;2.60;1.23;;;;;;;18.91;55.52;96470.34;5014834;28;20469;-30
2022/05/07 02:45:19;;;;;;;2.85;1.52;;;;;;;18.91;55.33;96459.38;5015033;28;20030;-32
2022/05/07 02:47:45;;;;;;;1.35;1.25;;;;;;;18.85;55.55;96464.03;5014789;28;20376;-30
2022/05/07 02:50:11;;;;;;;1.85;1.60;;;;;;;18.98;55.15;96459.69;5015079;28;20026;-30
2022/05/07 02:52:38;;;;;;;2.35;1.52;;;;;;;18.92;55.42;96458.88;5014629;28;20037;-30
2022/05/07 02:55:06;;;;;;;5.15;1.75;;;;;;;18.85;55.38;96462.03;5014966;28;20100;-30
2022/05/07 02:57:31;;;;;;;3.75;1.50;;;;;;;18.85;55.31;96451.03;5014785;28;20022;-30
2022/05/07 02:59:57;;;;;;;1.50;1.23;;;;;;;18.88;55.04;96443.84;5014649;28;20030;-30
2022/05/07 03:02:23;;;;;;;3.30;1.63;;;;;;;18.90;55.31;96444.13;5014532;28;20050;-31
2022/05/07 03:04:49;;;;;;;1.60;1.50;;;;;;;18.87;55.40;96447.81;5014645;28;20093;-31
2022/05/07 03:07:16;;;;;;;2.22;1.38;;;;;;;18.76;55.60;96428.44;5014657;28;20026;-30
2022/05/07 03:09:41;;;;;;;4.40;1.58;;;;;;;18.65;55.70;96437.31;5014410;28;20097;-32
2022/05/07 03:12:07;;;;;;;2.80;1.60;;;;;;;18.86;55.40;96451.78;5014346;28;20032;-30
2022/05/07 03:14:32;;;;;;;1.70;1.40;;;;;;;18.87;55.30;96445.81;5014359;28;20024;-30
2022/05/07 03:16:59;;;;;;;3.05;1.60;;;;;;;18.87;55.31;96447.81;5014472;28;20037;-31
2022/05/07 03:19:25;;;;;;;2.90;1.60;;;;;;;18.89;55.36;96442.59;5014502;28;20029;-30
2022/05/07 03:21:50;;;;;;;2.03;1.58;;;;;;;18.90;55.39;96449.59;5014333;28;20037;-31
2022/05/07 03:24:16;;;;;;;1.70;1.40;;;;;;;18.92;55.21;96456.13;5014190;28;20025;-30
2022/05/07 03:26:41;;;;;;;4.50;1.50;;;;;;;18.92;55.31;96450.63;5029488;28;20429;-30
2022/05/07 03:29:07;;;;;;;3.13;1.60;;;;;;;18.87;55.21;96456.81;5014138;28;20080;-30
2022/05/07 03:31:33;;;;;;;2.20;1.80;;;;;;;18.87;55.15;96456.81;5014160;28;20495;-31
2022/05/07 03:33:58;;;;;;;3.35;1.70;;;;;;;18.85;55.13;96459.28;5014182;28;20057;-30
2022/05/07 03:36:24;;;;;;;3.10;1.55;;;;;;;18.94;54.73;96459.13;5013965;28;20030;-30
2022/05/07 03:38:49;;;;;;;2.78;1.90;;;;;;;18.91;54.51;96459.38;5013768;28;20080;-31
2022/05/07 03:41:15;;;;;;;3.10;1.70;;;;;;;18.94;54.75;96470.13;5013975;28;20026;-31
2022/05/07 03:43:40;;;;;;;2.50;1.55;;;;;;;18.99;54.49;96469.47;5014054;28;20459;-30
2022/05/07 03:46:06;;;;;;;3.60;1.75;;;;;;;18.93;54.96;96474.13;5013815;28;20032;-30
2022/05/07 03:48:32;;;;;;;3.33;1.80;;;;;;;18.88;54.95;96483.06;5028964;28;20054;-30
2022/05/07 03:50:57;;;;;;;2.75;1.67;;;;;;;18.86;54.63;96480.03;5028967;28;20029;-31
2022/05/07 03:53:32;;;;;;;3.92;1.98;;;;;;;18.89;54.80;96479.06;5013770;28;20030;-30
2022/05/07 03:56:05;;;;;;;2.95;1.70;;;;;;;18.85;55.01;96478.53;5013773;28;20049;-30
2022/05/07 03:58:31;;;;;;;2.63;1.70;;;;;;;18.88;55.02;96483.06;5013837;28;20076;-31
2022/05/07 04:00:58;;;;;;;2.90;1.88;;;;;;;18.72;55.39;96480.84;5013899;28;20481;-32
2022/05/07 04:03:25;;;;;;;3.72;1.75;;;;;;;18.83;55.09;96491.97;5013898;28;20026;-31
2022/05/07 04:05:51;;;;;;;2.92;1.80;;;;;;;18.83;54.66;96491.97;5013765;28;20029;-30
2022/05/07 04:08:17;;;;;;;3.58;1.90;;;;;;;18.90;54.59;96491.59;5013716;28;20030;-30
2022/05/07 04:10:42;;;;;;;2.45;1.65;;;;;;;18.90;54.56;96494.34;5013549;28;20408;-30
2022/05/07 04:13:12;;;;;;;2.72;2.03;;;;;;;18.84;54.70;96496.25;5013317;28;20030;-30
2022/05/07 04:15:38;;;;;;;3.03;1.80;;;;;;;18.82;54.99;96501.44;5013935;28;20083;-30
2022/05/07 04:18:07;;;;;;;3.67;1.80;;;;;;;18.86;54.79;96501.25;5013623;28;20054;-30
2022/05/07 04:20:33;;;;;;;3.35;1.90;;;;;;;18.95;54.23;96503.88;5013450;28;20107;-30
2022/05/07 04:22:59;;;;;;;2.33;1.50;;;;;;;18.84;54.34;96499.00;5028660;28;20373;-30
2022/05/07 04:25:25;;;;;;;2.58;1.77;;;;;;;18.74;54.72;96502.34;5013508;28;20084;-30
2022/05/07 04:27:51;;;;;;;3.03;1.70;;;;;;;18.87;54.29;96503.53;5013404;28;20498;-30
2022/05/07 04:30:16;;;;;;;3.15;1.90;;;;;;;18.83;54.60;96496.72;5013374;28;20026;-30
2022/05/07 04:32:42;;;;;;;3.58;2.40;;;;;;;18.85;54.64;96506.00;5013395;28;20054;-30
2022/05/07 04:35:07;;;;;;;3.47;2.55;;;;;;;18.90;54.27;96507.31;5013447;28;20032;-30
2022/05/07 04:37:33;;;;;;;3.03;1.75;;;;;;;18.88;54.35;96510.53;5011741;28;20033;-30
2022/05/07 04:39:59;;;;;;;3.85;1.95;;;;;;;18.87;54.57;96505.53;4991678;28;20034;-30
2022/05/07 04:42:24;;;;;;;3.53;2.22;;;;;;;18.89;54.72;96508.56;4991743;28;20088;-30
2022/05/07 04:44:50;;;;;;;2.20;1.98;;;;;;;18.86;54.44;96504.75;4991653;28;20059;-30
2022/05/07 04:47:16;;;;;;;4.53;2.03;;;;;;;18.97;54.05;96509.66;4991715;28;20030;-30
2022/05/07 04:49:41;;;;;;;3.55;2.05;;;;;;;18.88;54.27;96518.03;4991364;28;20088;-30
2022/05/07 04:52:07;;;;;;;2.90;2.17;;;;;;;18.95;53.92;96515.63;4994084;28;20058;-31
2022/05/07 04:54:33;;;;;;;3.45;2.50;;;;;;;18.82;54.60;96528.94;4994146;28;20034;-31
2022/05/07 04:56:59;;;;;;;3.88;2.15;;;;;;;18.83;54.31;96524.94;4994164;28;20053;-30
2022/05/07 04:59:24;;;;;;;2.00;1.65;;;;;;;18.83;54.33;96515.94;4995462;28;20052;-30
2022/05/07 05:01:50;;;;;;;2.70;1.80;;;;;;;18.90;54.10;96523.81;4995020;28;20034;-31
2022/05/07 05:04:16;;;;;;;2.78;2.10;;;;;;;18.80;54.41;96520.41;4993375;28;20030;-30
2022/05/07 05:06:42;;;;;;;3.47;2.10;;;;;;;18.87;53.83;96509.03;5009968;28;20022;-30
2022/05/07 05:09:08;;;;;;;2.45;1.80;;;;;;;18.82;54.30;96523.44;5014879;28;20459;-30
2022/05/07 05:11:35;;;;;;;3.33;1.75;;;;;;;18.75;54.37;96518.34;5014963;28;20398;-30
2022/05/07 05:14:01;;;;;;;3.42;2.25;;;;;;;18.85;53.89;96536.22;5014519;28;20037;-30
2022/05/07 05:16:27;;;;;;;3.30;2.30;;;;;;;18.83;54.16;96524.19;5014634;28;20025;-30
2022/05/07 05:18:52;;;;;;;3.50;2.35;;;;;;;18.84;54.07;96526.47;5014734;28;20108;-31
2022/05/07 05:21:18;;;;;;;6.05;2.33;;;;;;;18.84;54.01;96526.47;5014599;28;20559;-30
2022/05/07 05:23:46;;;;;;;3.67;2.20;;;;;;;18.85;53.80;96538.97;5014544;28;20063;-30
2022/05/07 05:26:13;;;;;;;2.63;1.85;;;;;;;18.82;54.18;96523.44;5014324;28;20049;-30
2022/05/07 05:28:40;;;;;;;5.03;2.35;;;;;;;18.85;54.01;96533.47;5014540;28;20041;-30
2022/05/07 05:31:09;;;;;;;5.63;2.40;;;;;;;18.88;53.78;96534.50;5014425;28;20083;-30
2022/05/07 05:33:34;;;;;;;5.32;2.53;;;;;;;18.92;53.82;96537.81;5014333;28;20057;-30
2022/05/07 05:36:00;;;;;;;2.95;2.10;;;;;;;18.88;54.01;96551.00;5014216;28;20421;-30
2022/05/07 05:38:26;;;;;;;3.45;1.98;;;;;;;18.84;53.87;96555.94;5014260;28;20050;-30
2022/05/07 05:40:51;;;;;;;2.95;2.17;;;;;;;18.90;53.79;96551.28;5014323;28;20468;-30
2022/05/07 05:43:18;;;;;;;3.28;1.98;;;;;;;18.76;54.03;96552.84;5014277;28;20065;-30
2022/05/07 05:45:43;;;;;;;4.20;2.00;;;;;;;18.88;53.76;96553.75;5014198;28;20350;-30
2022/05/07 05:48:09;;;;;;;4.90;2.20;;;;;;;18.89;53.64;96550.53;5014041;28;20184;-30
2022/05/07 05:50:35;;;;;;;2.75;2.15;;;;;;;18.84;53.87;96553.19;5014022;28;20356;-30
2022/05/07 05:53:01;;;;;;;3.53;2.20;;;;;;;18.76;53.95;96543.84;5029139;28;20480;-30
2022/05/07 05:55:27;;;;;;;4.75;2.20;;;;;;;18.86;53.95;96550.72;5014144;28;20037;-30
2022/05/07 05:57:52;;;;;;;6.43;2.53;;;;;;;18.89;53.46;96549.78;5014001;28;20113;-32
2022/05/07 06:00:18;;;;;;;4.22;2.40;;;;;;;18.91;53.53;96555.56;5013950;28;20030;-30
2022/05/07 06:02:44;;;;;;;4.13;2.03;;;;;;;18.91;53.54;96555.56;5028567;28;20071;-30
2022/05/07 06:05:15;;;;;;;4.22;2.13;;;;;;;18.88;53.64;96549.00;5012607;28;20030;-32
2022/05/07 06:07:40;;;;;;;4.13;2.20;;;;;;;18.70;54.29;96564.97;5013906;28;20029;-30
2022/05/07 06:10:06;;;;;;;4.40;2.28;;;;;;;18.78;53.91;96561.34;5013796;28;20018;-31
2022/05/07 06:12:33;;;;;;;3.67;2.50;;;;;;;18.84;53.67;96564.94;5013509;28;20041;-31
2022/05/07 06:14:58;;;;;;;3.38;2.30;;;;;;;18.82;53.70;96567.41;5013559;28;20388;-30
2022/05/07 06:17:25;;;;;;;5.38;2.40;;;;;;;18.76;54.12;96563.81;5013546;28;20026;-30
2022/05/07 06:19:51;;;;;;;5.28;2.45;;;;;;;18.87;53.76;96565.97;5013525;28;20088;-30
2022/05/07 06:22:16;;;;;;;3.72;2.15;;;;;;;18.83;53.70;96563.41;5013423;28;20057;-30
2022/05/07 06:27:31;;;;;;;3.65;2.60;;;;;;;18.84;53.56;96564.19;5014093;28;20108;-30
2022/05/07 06:30:00;;;;;;;3.33;2.08;;;;;;;18.87;53.52;96563.97;5014844;28;20026;-32
2022/05/07 06:32:36;;;;;;;4.50;2.72;;;;;;;18.90;53.72;96560.28;5014660;28;20472;-30
2022/05/07 06:35:06;;;;;;;6.03;2.50;;;;;;;18.87;53.83;96563.22;5014663;28;20037;-30
2022/05/07 06:37:32;;;;;;;2.38;2.13;;;;;;;18.94;53.55;96558.06;5014844;28;20163;-30
2022/05/07 06:39:58;;;;;;;3.50;2.30;;;;;;;18.84;53.85;96567.69;5014557;28;20033;-31
2022/05/07 06:42:24;;;;;;;3.25;2.22;;;;;;;18.73;53.99;96564.00;5014494;28;20148;-30
2022/05/07 06:44:50;;;;;;;4.10;2.38;;;;;;;18.79;53.88;96562.84;5014589;28;20105;-31
2022/05/07 06:47:16;;;;;;;4.97;2.47;;;;;;;18.87;53.49;96568.72;5014306;28;20103;-30
2022/05/07 06:49:43;;;;;;;2.90;2.42;;;;;;;18.76;54.02;96572.06;5014045;28;20042;-32
2022/05/07 06:52:09;;;;;;;4.03;2.22;;;;;;;18.82;53.87;96564.66;5014554;28;20483;-30
2022/05/07 06:54:34;;;;;;;2.45;1.98;;;;;;;18.82;53.84;96572.88;5014246;28;20036;-32
2022/05/07 06:57:00;;;;;;;5.32;2.97;;;;;;;18.84;53.60;96577.91;5014031;28;20046;-30
2022/05/07 06:59:26;;;;;;;4.28;2.08;;;;;;;18.85;53.52;96568.44;5029309;28;20026;-31
2022/05/07 07:01:51;;;;;;;5.43;2.70;;;;;;;18.81;53.79;96582.38;5014170;28;20088;-30
2022/05/07 07:04:17;;;;;;;4.45;2.70;;;;;;;18.90;53.53;96574.03;5013974;28;20075;-30
2022/05/07 07:06:43;;;;;;;2.80;1.88;;;;;;;18.84;53.72;96586.16;5014363;28;20026;-30
2022/05/07 07:09:08;;;;;;;6.72;2.85;;;;;;;18.85;53.68;96587.66;5013729;28;20022;-30
2022/05/07 07:11:37;;;;;;;3.70;2.20;;;;;;;18.85;53.70;96580.19;5013999;28;20464;-29
2022/05/07 07:14:02;;;;;;;3.85;2.38;;;;;;;18.74;54.22;96576.50;5012956;28;20030;-30
2022/05/07 07:16:29;;;;;;;3.20;2.05;;;;;;;18.74;54.23;96582.78;5029117;28;20026;-32
2022/05/07 07:18:55;;;;;;;3.60;2.60;;;;;;;18.64;54.51;96584.88;5014520;28;20407;-31
2022/05/07 07:21:20;;;;;;;4.95;2.40;;;;;;;18.88;53.95;96582.00;5013683;28;20026;-31
2022/05/07 07:23:46;;;;;;;3.70;2.33;;;;;;;18.73;54.15;96581.25;5014146;28;20045;-30
2022/05/07 07:26:12;;;;;;;3.50;2.00;;;;;;;18.87;53.98;96585.22;5013697;28;20476;-30
2022/05/07 07:28:37;;;;;;;5.18;2.35;;;;;;;18.52;53.38;96574.16;5013321;28;20132;-30
2022/05/07 07:31:03;;;;;;;4.18;2.28;;;;;;;18.63;54.43;96577.09;5013558;28;20033;-30
2022/05/07 07:33:29;;;;;;;4.70;2.20;;;;;;;18.58;53.99;96586.75;5013342;28;20037;-31
2022/05/07 07:35:55;;;;;;;5.00;3.10;;;;;;;18.61;54.01;96585.06;5013546;28;20047;-31
2022/05/07 07:38:21;;;;;;;5.00;2.53;;;;;;;18.60;53.75;96589.03;5013570;28;20054;-31
2022/05/07 07:40:50;;;;;;;3.50;2.20;;;;;;;18.72;54.23;96590.72;5013563;28;20025;-30
2022/05/07 07:43:16;;;;;;;8.10;2.53;;;;;;;18.54;54.83;96585.44;5013224;28;20409;-32
2022/05/07 07:48:27;;;;;;;5.20;2.33;;;;;;;18.63;54.80;96599.09;5013474;28;20049;-30
2022/05/07 07:50:53;;;;;;;3.35;2.38;;;;;;;18.67;54.44;96591.38;5013090;28;20034;-30
2022/05/07 07:53:22;;;;;;;4.55;2.35;;;;;;;18.73;54.48;96596.97;5013472;28;20026;-31
2022/05/07 07:55:48;;;;;;;4.20;2.40;;;;;;;18.80;54.63;96602.06;5013755;28;20473;-31
2022/05/07 07:58:13;;;;;;;5.32;2.70;;;;;;;18.75;53.08;96603.53;5013323;28;20085;-30
2022/05/07 08:00:41;;;;;;;6.57;2.85;;;;;;;18.42;54.88;96595.44;5013702;28;20026;-30
2022/05/07 08:03:12;;;;;;;3.47;2.22;;;;;;;18.67;54.92;96593.41;5013052;28;20536;-30
2022/05/07 08:05:38;;;;;;;4.18;2.00;;;;;;;18.71;54.49;96596.69;5012860;28;20404;-30
2022/05/07 08:13:39;;;;;;;5.95;2.40;;;;;;;18.28;53.50;96601.72;5013043;28;20041;-29
2022/05/07 08:16:07;;;;;;;7.15;3.08;;;;;;;18.63;53.16;96605.34;5013028;28;20054;-29
2022/05/07 08:18:34;;;;;;;5.07;2.40;;;;;;;18.75;52.86;96611.00;5013158;28;20049;-31
2022/05/07 08:21:00;;;;;;;5.47;2.28;;;;;;;18.70;53.12;96604.19;5012993;28;20032;-29
2022/05/07 08:23:26;;;;;;;3.70;2.28;;;;;;;18.81;53.30;96604.34;5012852;28;20392;-29
2022/05/07 08:25:53;;;;;;;5.18;2.25;;;;;;;18.79;53.15;96600.59;5014454;28;20026;-29
2022/05/07 08:28:19;;;;;;;4.75;2.70;;;;;;;18.70;53.26;96601.44;5016694;28;20464;-30
2022/05/07 08:30:45;;;;;;;4.68;2.35;;;;;;;18.78;53.05;96607.31;5016628;28;20113;-29
2022/05/07 08:33:11;;;;;;;5.85;2.50;;;;;;;18.83;53.17;96618.38;5017097;28;20022;-30
2022/05/07 08:35:37;;;;;;;5.25;2.95;;;;;;;18.81;53.20;96609.09;5023028;28;20057;-29
2022/05/07 08:38:02;;;;;;;5.05;3.00;;;;;;;18.77;53.29;96608.53;5018023;28;20460;-29
2022/05/07 08:40:28;;;;;;;7.03;2.85;;;;;;;18.75;53.39;96609.00;5020221;28;20120;-29
2022/05/07 08:42:57;;;;;;;7.78;2.78;;;;;;;18.74;53.29;96614.97;5016679;28;20104;-29
2022/05/07 08:45:23;;;;;;;6.50;2.70;;;;;;;18.58;53.62;96618.97;5016821;28;20041;-29
2022/05/07 08:47:53;;;;;;;5.35;2.25;;;;;;;18.73;53.01;96619.72;5016269;28;20033;-29
2022/05/07 08:50:19;;;;;;;5.60;2.60;;;;;;;18.79;53.37;96617.06;5015476;28;20021;-29
2022/05/07 08:52:46;;;;;;;5.53;2.35;;;;;;;18.80;53.36;96627.56;5011577;28;20468;-30
2022/05/07 08:55:16;;;;;;;3.40;2.60;;;;;;;18.82;53.13;96614.09;5016898;28;20026;-30
2022/05/07 08:57:44;;;;;;;5.13;2.75;;;;;;;18.83;53.25;96609.38;5016975;28;20021;-30
2022/05/07 09:00:10;;;;;;;6.00;2.83;;;;;;;18.82;53.21;96610.59;5016977;28;20021;-29
2022/05/07 09:02:42;;;;;;;6.28;2.60;;;;;;;18.83;53.25;96607.38;5016861;28;20021;-29
2022/05/07 09:05:12;;;;;;;3.92;2.30;;;;;;;18.85;52.77;96610.41;5016982;28;20116;-29
2022/05/07 09:07:40;;;;;;;8.43;2.80;;;;;;;18.91;52.75;96607.75;5016790;28;20033;-29
2022/05/07 09:10:13;;;;;;;5.45;2.53;;;;;;;18.85;52.69;96604.16;5016932;28;20026;-30
2022/05/07 09:12:39;;;;;;;6.85;2.67;;;;;;;18.88;52.68;96614.97;5017062;28;20114;-29
2022/05/07 09:15:06;;;;;;;6.18;2.95;;;;;;;18.89;52.79;96613.72;5016918;28;20104;-30
2022/05/07 09:17:33;;;;;;;5.10;3.25;;;;;;;18.89;52.88;96615.72;5016874;28;20022;-30
2022/05/07 09:20:10;;;;;;;3.60;2.33;;;;;;;18.83;53.08;96612.13;5016472;28;20032;-29
2022/05/07 09:22:46;;;;;;;4.78;2.63;;;;;;;18.84;52.90;96608.13;5015004;28;20499;-29
2022/05/07 09:25:18;;;;;;;5.20;2.63;;;;;;;18.89;52.89;96615.72;5016463;28;20474;-29
2022/05/07 09:27:47;;;;;;;3.40;2.60;;;;;;;18.90;52.66;96601.50;5016512;28;20030;-30
2022/05/07 09:30:19;;;;;;;3.00;2.20;;;;;;;18.91;52.59;96600.28;5026344;28;20025;-29
2022/05/07 09:32:49;;;;;;;3.85;2.20;;;;;;;18.92;52.84;96588.03;5027414;28;20473;-29
2022/05/07 09:38:01;;;;;;;4.95;2.50;;;;;;;18.93;52.69;96594.28;5015651;28;20029;-29
2022/05/07 09:40:28;;;;;;;3.42;2.55;;;;;;;18.92;52.77;96592.75;5032114;28;20072;-29
2022/05/07 09:43:00;;;;;;;3.10;2.08;;;;;;;18.91;52.91;96602.25;5029067;28;20033;-29
2022/05/07 09:45:28;;;;;;;3.47;2.13;;;;;;;18.92;52.78;96596.25;5016439;28;20088;-29
2022/05/07 09:47:55;;;;;;;4.43;2.30;;;;;;;18.88;52.87;96601.22;5048198;28;20286;-29
2022/05/07 09:50:43;;;;;;;4.93;2.13;;;;;;;18.93;52.61;96599.78;5016378;28;20575;-29
2022/05/07 09:58:48;;;;;;;4.88;2.30;;;;;;;18.99;52.67;96609.63;5016330;28;20056;-29
2022/05/07 10:01:30;;;;;;;4.43;2.50;;;;;;;18.90;52.86;96607.00;5015949;28;20477;-30
2022/05/07 10:04:06;;;;;;;3.55;2.00;;;;;;;18.97;52.71;96612.09;5015798;28;20060;-29
2022/05/07 10:06:50;;;;;;;3.72;2.17;;;;;;;18.91;52.75;96603.03;5016139;28;20026;-29
2022/05/07 10:09:37;;;;;;;4.22;2.20;;;;;;;18.98;52.61;96608.13;5015936;28;20064;-31
2022/05/07 10:12:03;;;;;;;4.57;2.20;;;;;;;18.97;52.48;96601.09;5015683;28;20034;-29
2022/05/07 10:14:31;;;;;;;3.58;2.10;;;;;;;19.00;52.60;96604.88;5015740;28;20104;-31
2022/05/07 10:17:10;;;;;;;3.13;2.20;;;;;;;18.98;52.37;96602.63;5015593;28;20076;-29
2022/05/07 10:19:39;;;;;;;4.35;2.95;;;;;;;18.95;52.48;96606.31;5015618;28;20029;-29
2022/05/07 10:22:24;;;;;;;5.63;2.38;;;;;;;18.89;52.55;96613.72;5015553;28;20029;-29
2022/05/07 10:25:07;;;;;;;5.30;2.30;;;;;;;18.95;52.43;96594.56;5015397;28;20022;-29
2022/05/07 10:27:34;;;;;;;4.03;2.28;;;;;;;18.94;52.30;96607.53;5015237;28;20032;-30
2022/05/07 10:30:06;;;;;;;4.35;2.05;;;;;;;18.92;52.38;96601.75;5015605;28;20042;-29
2022/05/07 10:32:54;;;;;;;4.38;2.17;;;;;;;18.94;52.56;96602.03;5015280;28;20484;-30
2022/05/07 10:35:41;;;;;;;4.93;2.20;;;;;;;18.93;52.57;96594.28;5015332;28;20033;-29
2022/05/07 10:38:30;;;;;;;4.68;2.28;;;;;;;18.91;52.53;96594.03;5015174;28;20045;-29
2022/05/07 10:41:10;;;;;;;3.35;2.40;;;;;;;18.93;52.34;96594.28;5015324;28;20030;-30
2022/05/07 10:43:38;;;;;;;4.20;1.90;;;;;;;18.96;52.31;96587.84;5015411;28;20085;-29
2022/05/07 10:46:06;;;;;;;4.20;2.20;;;;;;;18.89;52.64;96589.00;5015294;28;20026;-30
2022/05/07 10:48:59;;;;;;;3.78;2.33;;;;;;;18.93;52.38;96594.28;5014045;28;20054;-29
2022/05/07 10:51:30;;;;;;;4.15;1.90;;;;;;;18.96;52.30;96582.34;5010844;28;20053;-29
2022/05/07 10:53:59;;;;;;;5.70;2.42;;;;;;;19.57;51.38;96580.41;4993165;28;20485;-30
2022/05/07 10:56:25;;;;;;;5.50;2.38;;;;;;;20.59;49.06;96578.22;5012310;28;20038;-30
2022/05/07 10:58:52;;;;;;;7.25;2.70;;;;;;;20.99;47.98;96582.00;4993057;28;20473;-29
2022/05/07 11:01:21;;;;;;;5.63;2.60;;;;;;;21.24;47.63;96580.44;4993356;28;20029;-30
2022/05/07 11:03:47;;;;;;;4.00;2.90;;;;;;;21.29;47.35;96583.19;5008348;28;20038;-29
2022/05/07 11:06:13;;;;;;;5.15;3.30;;;;;;;21.36;47.37;96577.25;4993151;28;20034;-30
2022/05/07 11:08:49;;;;;;;6.65;3.38;;;;;;;21.53;47.10;96574.53;4994966;28;20030;-29
2022/05/07 11:11:15;;;;;;;3.85;3.47;;;;;;;21.59;46.77;96572.56;5010756;28;20028;-29
2022/05/07 11:13:49;;;;;;;5.53;3.97;;;;;;;21.61;46.95;96575.59;5012579;28;20436;-30
2022/05/07 11:16:16;;;;;;;4.82;3.60;;;;;;;21.63;46.92;96567.56;5012031;28;20036;-30
2022/05/07 11:18:45;;;;;;;4.07;3.50;;;;;;;21.58;46.75;96564.78;5012150;28;20088;-30
2022/05/07 11:21:12;;;;;;;4.63;3.45;;;;;;;21.51;47.08;96564.00;5012175;28;20551;-31
2022/05/07 11:23:43;;;;;;;5.10;3.72;;;;;;;21.56;46.88;96557.00;5012497;28;20088;-29
2022/05/07 11:26:16;;;;;;;4.65;3.30;;;;;;;21.58;47.06;96553.75;5012529;28;20429;-29
2022/05/07 11:28:44;;;;;;;6.88;3.55;;;;;;;21.59;47.00;96546.97;5012496;28;20113;-30
2022/05/07 11:31:11;;;;;;;5.25;3.15;;;;;;;21.63;47.16;96547.50;5027234;28;20030;-30
2022/05/07 11:33:38;;;;;;;3.72;3.40;;;;;;;21.58;47.19;96553.75;5011988;28;20050;-29
2022/05/07 11:36:06;;;;;;;4.60;3.28;;;;;;;21.53;47.11;96549.69;5012143;28;20026;-29
2022/05/07 11:38:34;;;;;;;7.72;3.20;;;;;;;21.53;47.31;96549.69;5011734;28;20112;-29
2022/05/07 11:41:12;;;;;;;4.70;3.42;;;;;;;21.55;47.29;96544.44;5012077;28;20101;-30
2022/05/07 11:46:22;;;;;;;6.28;3.25;;;;;;;21.46;46.96;96537.16;5011614;28;20040;-30
2022/05/07 11:48:47;;;;;;;7.28;3.10;;;;;;;21.50;47.24;96545.19;5011930;28;20057;-31
2022/05/07 11:51:22;;;;;;;7.38;3.85;;;;;;;21.49;47.43;96551.97;5043652;28;20484;-29
2022/05/07 11:53:48;;;;;;;5.57;3.08;;;;;;;21.47;47.41;96554.47;5013882;28;20060;-29
2022/05/07 11:56:13;;;;;;;5.40;2.70;;;;;;;21.47;47.29;96543.41;5013351;28;20441;-30
2022/05/07 11:58:40;;;;;;;7.03;2.97;;;;;;;21.39;47.73;96558.91;5013460;28;20033;-31
2022/05/07 12:01:28;;;;;;;4.07;2.90;;;;;;;21.47;47.26;96551.69;5013223;28;20028;-29
2022/05/07 12:03:54;;;;;;;5.32;3.05;;;;;;;21.36;47.80;96551.66;5029134;28;20022;-29
2022/05/07 12:06:32;;;;;;;6.38;2.75;;;;;;;21.28;47.59;96554.09;5013716;28;20032;-29